sensor_id;sensor_type;location;lat;lon;timestamp;P1;durP1;ratioP1;P2;durP2;ratioP2
22543;SDS011;11438;52.044;8.716;2024-03-22T00:01:43;32.38;;;19.85;;
22543;SDS011;11438;52.044;8.716;2024-03-22T00:04:09;31.15;;;19.92;;
22543;SDS011;11438;52.044;8.716;2024-03-22T00:06:35;32.05;;;20.27;;
22543;SDS011;11438;52.044;8.716;2024-03-22T00:09:01;31.98;;;20.63;;
22543;SDS011;11438;52.044;8.716;2024-03-22T00:11:27;28.30;;;18.80;;
22543;SDS011;11438;52.044;8.716;2024-03-22T00:13:52;32.30;;;19.67;;
22543;SDS011;11438;52.044;8.716;2024-03-22T00:16:18;31.77;;;19.42;;
22543;SDS011;11438;52.044;8.716;2024-03-22T00:18:43;31.58;;;20.52;;
22543;SDS011;11438;52.044;8.716;2024-03-22T00:21:09;33.65;;;19.55;;
22543;SDS011;11438;52.044;8.716;2024-03-22T00:23:34;30.15;;;19.55;;
22543;SDS011;11438;52.044;8.716;2024-03-22T00:25:59;30.42;;;19.50;;
22543;SDS011;11438;52.044;8.716;2024-03-22T00:28:25;32.45;;;20.15;;
22543;SDS011;11438;52.044;8.716;2024-03-22T00:30:50;33.17;;;21.52;;
22543;SDS011;11438;52.044;8.716;2024-03-22T00:33:16;38.22;;;21.50;;
22543;SDS011;11438;52.044;8.716;2024-03-22T00:35:41;33.58;;;20.80;;
22543;SDS011;11438;52.044;8.716;2024-03-22T00:38:07;33.28;;;20.98;;
22543;SDS011;11438;52.044;8.716;2024-03-22T00:40:33;32.72;;;20.55;;
22543;SDS011;11438;52.044;8.716;2024-03-22T00:42:58;30.52;;;20.27;;
22543;SDS011;11438;52.044;8.716;2024-03-22T00:45:24;31.77;;;20.73;;
22543;SDS011;11438;52.044;8.716;2024-03-22T00:47:49;34.10;;;22.40;;
22543;SDS011;11438;52.044;8.716;2024-03-22T00:50:15;33.17;;;21.80;;
22543;SDS011;11438;52.044;8.716;2024-03-22T00:52:40;31.63;;;20.98;;
22543;SDS011;11438;52.044;8.716;2024-03-22T00:55:06;36.17;;;21.60;;
22543;SDS011;11438;52.044;8.716;2024-03-22T00:57:32;35.55;;;22.77;;
22543;SDS011;11438;52.044;8.716;2024-03-22T00:59:58;35.20;;;22.33;;
22543;SDS011;11438;52.044;8.716;2024-03-22T01:02:23;32.70;;;21.30;;
22543;SDS011;11438;52.044;8.716;2024-03-22T01:04:49;37.05;;;22.42;;
22543;SDS011;11438;52.044;8.716;2024-03-22T01:07:14;33.80;;;22.10;;
22543;SDS011;11438;52.044;8.716;2024-03-22T01:09:40;34.33;;;21.10;;
22543;SDS011;11438;52.044;8.716;2024-03-22T01:12:05;35.65;;;21.52;;
22543;SDS011;11438;52.044;8.716;2024-03-22T01:14:31;33.38;;;21.48;;
22543;SDS011;11438;52.044;8.716;2024-03-22T01:16:56;37.35;;;22.85;;
22543;SDS011;11438;52.044;8.716;2024-03-22T01:19:22;37.15;;;22.50;;
22543;SDS011;11438;52.044;8.716;2024-03-22T01:21:48;38.38;;;21.40;;
22543;SDS011;11438;52.044;8.716;2024-03-22T01:24:14;35.47;;;21.67;;
22543;SDS011;11438;52.044;8.716;2024-03-22T01:26:39;37.22;;;20.80;;
22543;SDS011;11438;52.044;8.716;2024-03-22T01:29:05;35.40;;;22.70;;
22543;SDS011;11438;52.044;8.716;2024-03-22T01:31:30;35.42;;;22.67;;
22543;SDS011;11438;52.044;8.716;2024-03-22T01:33:55;35.70;;;21.63;;
22543;SDS011;11438;52.044;8.716;2024-03-22T01:36:21;37.53;;;22.60;;
22543;SDS011;11438;52.044;8.716;2024-03-22T01:38:46;31.95;;;20.88;;
22543;SDS011;11438;52.044;8.716;2024-03-22T01:41:12;31.77;;;20.73;;
22543;SDS011;11438;52.044;8.716;2024-03-22T01:43:37;33.03;;;20.83;;
22543;SDS011;11438;52.044;8.716;2024-03-22T01:46:03;36.65;;;21.58;;
22543;SDS011;11438;52.044;8.716;2024-03-22T01:48:30;37.03;;;21.58;;
22543;SDS011;11438;52.044;8.716;2024-03-22T01:50:57;33.03;;;21.05;;
22543;SDS011;11438;52.044;8.716;2024-03-22T01:53:22;33.88;;;20.75;;
22543;SDS011;11438;52.044;8.716;2024-03-22T01:55:48;36.17;;;21.70;;
22543;SDS011;11438;52.044;8.716;2024-03-22T01:58:14;32.75;;;20.27;;
22543;SDS011;11438;52.044;8.716;2024-03-22T02:00:40;32.38;;;20.23;;
22543;SDS011;11438;52.044;8.716;2024-03-22T02:03:05;31.52;;;19.60;;
22543;SDS011;11438;52.044;8.716;2024-03-22T02:05:31;33.70;;;20.42;;
22543;SDS011;11438;52.044;8.716;2024-03-22T02:07:56;35.25;;;20.83;;
22543;SDS011;11438;52.044;8.716;2024-03-22T02:10:22;35.55;;;20.35;;
22543;SDS011;11438;52.044;8.716;2024-03-22T02:12:47;36.72;;;20.67;;
22543;SDS011;11438;52.044;8.716;2024-03-22T02:15:13;33.20;;;20.00;;
22543;SDS011;11438;52.044;8.716;2024-03-22T02:17:39;33.70;;;20.67;;
22543;SDS011;11438;52.044;8.716;2024-03-22T02:20:04;30.25;;;19.48;;
22543;SDS011;11438;52.044;8.716;2024-03-22T02:22:31;31.88;;;19.45;;
22543;SDS011;11438;52.044;8.716;2024-03-22T02:24:56;32.00;;;18.92;;
22543;SDS011;11438;52.044;8.716;2024-03-22T02:27:22;35.17;;;19.88;;
22543;SDS011;11438;52.044;8.716;2024-03-22T02:29:48;31.02;;;19.30;;
22543;SDS011;11438;52.044;8.716;2024-03-22T02:32:13;32.25;;;19.92;;
22543;SDS011;11438;52.044;8.716;2024-03-22T02:34:38;33.38;;;19.13;;
22543;SDS011;11438;52.044;8.716;2024-03-22T02:37:04;32.22;;;20.08;;
22543;SDS011;11438;52.044;8.716;2024-03-22T02:39:29;32.70;;;19.63;;
22543;SDS011;11438;52.044;8.716;2024-03-22T02:41:55;34.33;;;19.45;;
22543;SDS011;11438;52.044;8.716;2024-03-22T02:44:21;32.28;;;18.50;;
22543;SDS011;11438;52.044;8.716;2024-03-22T02:46:46;31.40;;;18.70;;
22543;SDS011;11438;52.044;8.716;2024-03-22T02:49:12;32.88;;;19.23;;
22543;SDS011;11438;52.044;8.716;2024-03-22T02:51:38;32.17;;;18.92;;
22543;SDS011;11438;52.044;8.716;2024-03-22T02:54:03;31.92;;;18.67;;
22543;SDS011;11438;52.044;8.716;2024-03-22T02:56:29;33.47;;;18.67;;
22543;SDS011;11438;52.044;8.716;2024-03-22T02:58:55;30.05;;;18.42;;
22543;SDS011;11438;52.044;8.716;2024-03-22T03:01:20;33.72;;;20.52;;
22543;SDS011;11438;52.044;8.716;2024-03-22T03:03:46;35.60;;;20.13;;
22543;SDS011;11438;52.044;8.716;2024-03-22T03:06:11;32.85;;;19.15;;
22543;SDS011;11438;52.044;8.716;2024-03-22T03:08:38;35.20;;;19.70;;
22543;SDS011;11438;52.044;8.716;2024-03-22T03:11:04;30.60;;;18.85;;
22543;SDS011;11438;52.044;8.716;2024-03-22T03:13:30;38.78;;;19.83;;
22543;SDS011;11438;52.044;8.716;2024-03-22T03:15:56;31.83;;;19.60;;
22543;SDS011;11438;52.044;8.716;2024-03-22T03:18:22;32.05;;;20.17;;
22543;SDS011;11438;52.044;8.716;2024-03-22T03:20:47;34.78;;;20.95;;
22543;SDS011;11438;52.044;8.716;2024-03-22T03:23:13;32.95;;;19.95;;
22543;SDS011;11438;52.044;8.716;2024-03-22T03:25:38;32.92;;;19.52;;
22543;SDS011;11438;52.044;8.716;2024-03-22T03:28:04;32.17;;;19.20;;
22543;SDS011;11438;52.044;8.716;2024-03-22T03:30:31;35.38;;;19.75;;
22543;SDS011;11438;52.044;8.716;2024-03-22T03:32:56;34.70;;;19.58;;
22543;SDS011;11438;52.044;8.716;2024-03-22T03:35:22;30.48;;;18.20;;
22543;SDS011;11438;52.044;8.716;2024-03-22T03:37:47;30.65;;;18.48;;
22543;SDS011;11438;52.044;8.716;2024-03-22T03:40:14;32.45;;;18.50;;
22543;SDS011;11438;52.044;8.716;2024-03-22T03:42:39;33.33;;;19.33;;
22543;SDS011;11438;52.044;8.716;2024-03-22T03:45:05;33.97;;;18.42;;
22543;SDS011;11438;52.044;8.716;2024-03-22T03:47:31;37.60;;;19.67;;
22543;SDS011;11438;52.044;8.716;2024-03-22T03:49:58;36.67;;;19.42;;
22543;SDS011;11438;52.044;8.716;2024-03-22T03:52:23;31.10;;;18.60;;
22543;SDS011;11438;52.044;8.716;2024-03-22T03:54:49;34.55;;;18.10;;
22543;SDS011;11438;52.044;8.716;2024-03-22T03:57:14;33.47;;;18.85;;
22543;SDS011;11438;52.044;8.716;2024-03-22T03:59:40;31.92;;;18.02;;
22543;SDS011;11438;52.044;8.716;2024-03-22T04:02:05;30.88;;;16.83;;
22543;SDS011;11438;52.044;8.716;2024-03-22T04:04:31;30.20;;;17.63;;
22543;SDS011;11438;52.044;8.716;2024-03-22T04:06:56;32.75;;;18.42;;
22543;SDS011;11438;52.044;8.716;2024-03-22T04:09:22;31.13;;;17.92;;
22543;SDS011;11438;52.044;8.716;2024-03-22T04:11:47;33.22;;;17.92;;
22543;SDS011;11438;52.044;8.716;2024-03-22T04:14:13;31.42;;;17.23;;
22543;SDS011;11438;52.044;8.716;2024-03-22T04:16:38;31.48;;;17.20;;
22543;SDS011;11438;52.044;8.716;2024-03-22T04:19:04;32.03;;;17.35;;
22543;SDS011;11438;52.044;8.716;2024-03-22T04:21:29;30.23;;;17.00;;
22543;SDS011;11438;52.044;8.716;2024-03-22T04:23:55;29.63;;;17.08;;
22543;SDS011;11438;52.044;8.716;2024-03-22T04:26:20;29.27;;;17.38;;
22543;SDS011;11438;52.044;8.716;2024-03-22T04:28:46;30.35;;;17.38;;
22543;SDS011;11438;52.044;8.716;2024-03-22T04:31:11;30.45;;;17.77;;
22543;SDS011;11438;52.044;8.716;2024-03-22T04:33:37;31.13;;;17.33;;
22543;SDS011;11438;52.044;8.716;2024-03-22T04:36:03;31.23;;;17.70;;
22543;SDS011;11438;52.044;8.716;2024-03-22T04:38:29;32.78;;;16.80;;
22543;SDS011;11438;52.044;8.716;2024-03-22T04:40:56;31.95;;;17.10;;
22543;SDS011;11438;52.044;8.716;2024-03-22T04:43:25;31.05;;;17.90;;
22543;SDS011;11438;52.044;8.716;2024-03-22T04:45:51;29.05;;;17.52;;
22543;SDS011;11438;52.044;8.716;2024-03-22T04:48:18;29.25;;;16.48;;
22543;SDS011;11438;52.044;8.716;2024-03-22T04:50:45;28.15;;;16.60;;
22543;SDS011;11438;52.044;8.716;2024-03-22T04:53:12;32.05;;;17.77;;
22543;SDS011;11438;52.044;8.716;2024-03-22T04:55:38;32.47;;;16.60;;
22543;SDS011;11438;52.044;8.716;2024-03-22T04:58:04;30.85;;;16.65;;
22543;SDS011;11438;52.044;8.716;2024-03-22T05:00:29;27.80;;;16.15;;
22543;SDS011;11438;52.044;8.716;2024-03-22T05:02:55;30.33;;;16.58;;
22543;SDS011;11438;52.044;8.716;2024-03-22T05:05:20;26.42;;;16.02;;
22543;SDS011;11438;52.044;8.716;2024-03-22T05:07:46;30.52;;;17.20;;
22543;SDS011;11438;52.044;8.716;2024-03-22T05:10:12;30.77;;;16.30;;
22543;SDS011;11438;52.044;8.716;2024-03-22T05:12:37;29.13;;;16.00;;
22543;SDS011;11438;52.044;8.716;2024-03-22T05:15:03;31.15;;;16.80;;
22543;SDS011;11438;52.044;8.716;2024-03-22T05:17:29;33.03;;;16.77;;
22543;SDS011;11438;52.044;8.716;2024-03-22T05:19:57;29.60;;;16.00;;
22543;SDS011;11438;52.044;8.716;2024-03-22T05:22:25;25.60;;;15.30;;
22543;SDS011;11438;52.044;8.716;2024-03-22T05:24:51;26.58;;;15.00;;
22543;SDS011;11438;52.044;8.716;2024-03-22T05:27:17;29.25;;;15.32;;
22543;SDS011;11438;52.044;8.716;2024-03-22T05:29:43;27.00;;;15.55;;
22543;SDS011;11438;52.044;8.716;2024-03-22T05:32:08;26.95;;;14.18;;
22543;SDS011;11438;52.044;8.716;2024-03-22T05:34:34;27.75;;;15.63;;
22543;SDS011;11438;52.044;8.716;2024-03-22T05:37:00;26.88;;;14.98;;
22543;SDS011;11438;52.044;8.716;2024-03-22T05:39:26;28.45;;;15.45;;
22543;SDS011;11438;52.044;8.716;2024-03-22T05:41:51;27.00;;;15.07;;
22543;SDS011;11438;52.044;8.716;2024-03-22T05:44:17;25.67;;;15.30;;
22543;SDS011;11438;52.044;8.716;2024-03-22T05:46:43;26.17;;;15.23;;
22543;SDS011;11438;52.044;8.716;2024-03-22T05:49:08;26.52;;;15.63;;
22543;SDS011;11438;52.044;8.716;2024-03-22T05:51:34;28.45;;;15.05;;
22543;SDS011;11438;52.044;8.716;2024-03-22T05:53:59;27.70;;;15.27;;
22543;SDS011;11438;52.044;8.716;2024-03-22T05:56:25;26.30;;;14.55;;
22543;SDS011;11438;52.044;8.716;2024-03-22T05:58:50;27.05;;;14.52;;
22543;SDS011;11438;52.044;8.716;2024-03-22T06:01:16;23.80;;;12.75;;
22543;SDS011;11438;52.044;8.716;2024-03-22T06:03:41;28.80;;;15.05;;
22543;SDS011;11438;52.044;8.716;2024-03-22T06:06:07;26.25;;;14.00;;
22543;SDS011;11438;52.044;8.716;2024-03-22T06:08:32;25.90;;;13.77;;
22543;SDS011;11438;52.044;8.716;2024-03-22T06:11:00;27.13;;;14.10;;
22543;SDS011;11438;52.044;8.716;2024-03-22T06:13:26;24.13;;;13.57;;
22543;SDS011;11438;52.044;8.716;2024-03-22T06:15:51;26.60;;;14.38;;
22543;SDS011;11438;52.044;8.716;2024-03-22T06:18:17;27.83;;;15.60;;
22543;SDS011;11438;52.044;8.716;2024-03-22T06:20:42;26.33;;;15.23;;
22543;SDS011;11438;52.044;8.716;2024-03-22T06:23:08;24.73;;;14.93;;
22543;SDS011;11438;52.044;8.716;2024-03-22T06:25:34;26.98;;;14.52;;
22543;SDS011;11438;52.044;8.716;2024-03-22T06:27:59;24.38;;;14.07;;
22543;SDS011;11438;52.044;8.716;2024-03-22T06:30:25;24.52;;;13.80;;
22543;SDS011;11438;52.044;8.716;2024-03-22T06:32:52;24.92;;;13.27;;
22543;SDS011;11438;52.044;8.716;2024-03-22T06:35:18;23.13;;;13.23;;
22543;SDS011;11438;52.044;8.716;2024-03-22T06:37:43;25.25;;;13.75;;
22543;SDS011;11438;52.044;8.716;2024-03-22T06:40:09;23.50;;;13.68;;
22543;SDS011;11438;52.044;8.716;2024-03-22T06:42:35;25.48;;;13.80;;
22543;SDS011;11438;52.044;8.716;2024-03-22T06:45:00;23.20;;;13.27;;
22543;SDS011;11438;52.044;8.716;2024-03-22T06:47:27;25.13;;;13.73;;
22543;SDS011;11438;52.044;8.716;2024-03-22T06:49:52;22.10;;;13.02;;
22543;SDS011;11438;52.044;8.716;2024-03-22T06:52:18;22.13;;;12.82;;
22543;SDS011;11438;52.044;8.716;2024-03-22T06:54:44;23.73;;;12.45;;
22543;SDS011;11438;52.044;8.716;2024-03-22T06:57:10;27.45;;;12.95;;
22543;SDS011;11438;52.044;8.716;2024-03-22T06:59:36;25.90;;;14.00;;
22543;SDS011;11438;52.044;8.716;2024-03-22T07:02:01;21.65;;;12.95;;
22543;SDS011;11438;52.044;8.716;2024-03-22T07:04:27;23.73;;;12.77;;
22543;SDS011;11438;52.044;8.716;2024-03-22T07:06:52;23.40;;;13.35;;
22543;SDS011;11438;52.044;8.716;2024-03-22T07:09:18;23.80;;;13.30;;
22543;SDS011;11438;52.044;8.716;2024-03-22T07:11:43;22.35;;;12.98;;
22543;SDS011;11438;52.044;8.716;2024-03-22T07:14:09;24.35;;;12.55;;
22543;SDS011;11438;52.044;8.716;2024-03-22T07:16:34;21.88;;;13.15;;
22543;SDS011;11438;52.044;8.716;2024-03-22T07:19:02;23.27;;;13.13;;
22543;SDS011;11438;52.044;8.716;2024-03-22T07:21:28;21.98;;;13.20;;
22543;SDS011;11438;52.044;8.716;2024-03-22T07:23:54;21.13;;;12.80;;
22543;SDS011;11438;52.044;8.716;2024-03-22T07:26:19;18.05;;;11.45;;
22543;SDS011;11438;52.044;8.716;2024-03-22T07:28:45;22.85;;;12.10;;
22543;SDS011;11438;52.044;8.716;2024-03-22T07:31:10;26.30;;;12.63;;
22543;SDS011;11438;52.044;8.716;2024-03-22T07:33:36;23.13;;;12.98;;
22543;SDS011;11438;52.044;8.716;2024-03-22T07:36:02;24.70;;;12.15;;
22543;SDS011;11438;52.044;8.716;2024-03-22T07:38:28;24.40;;;12.77;;
22543;SDS011;11438;52.044;8.716;2024-03-22T07:40:53;21.42;;;12.52;;
22543;SDS011;11438;52.044;8.716;2024-03-22T07:43:19;21.48;;;13.27;;
22543;SDS011;11438;52.044;8.716;2024-03-22T07:45:44;20.30;;;12.23;;
22543;SDS011;11438;52.044;8.716;2024-03-22T07:48:10;22.38;;;12.35;;
22543;SDS011;11438;52.044;8.716;2024-03-22T07:50:36;21.23;;;12.48;;
22543;SDS011;11438;52.044;8.716;2024-03-22T07:53:01;19.70;;;11.43;;
22543;SDS011;11438;52.044;8.716;2024-03-22T07:55:27;20.70;;;12.32;;
22543;SDS011;11438;52.044;8.716;2024-03-22T07:57:52;21.63;;;12.48;;
22543;SDS011;11438;52.044;8.716;2024-03-22T08:00:18;21.63;;;12.80;;
22543;SDS011;11438;52.044;8.716;2024-03-22T08:02:44;23.50;;;13.27;;
22543;SDS011;11438;52.044;8.716;2024-03-22T08:05:09;22.52;;;12.45;;
22543;SDS011;11438;52.044;8.716;2024-03-22T08:07:35;22.85;;;12.88;;
22543;SDS011;11438;52.044;8.716;2024-03-22T08:10:01;21.42;;;12.77;;
22543;SDS011;11438;52.044;8.716;2024-03-22T08:12:27;21.00;;;12.23;;
22543;SDS011;11438;52.044;8.716;2024-03-22T08:14:53;17.77;;;11.70;;
22543;SDS011;11438;52.044;8.716;2024-03-22T08:17:18;19.05;;;11.85;;
22543;SDS011;11438;52.044;8.716;2024-03-22T08:19:44;18.35;;;11.60;;
22543;SDS011;11438;52.044;8.716;2024-03-22T08:22:09;15.20;;;11.05;;
22543;SDS011;11438;52.044;8.716;2024-03-22T08:24:35;16.88;;;10.93;;
22543;SDS011;11438;52.044;8.716;2024-03-22T08:27:01;18.60;;;11.30;;
22543;SDS011;11438;52.044;8.716;2024-03-22T08:29:26;18.17;;;11.40;;
22543;SDS011;11438;52.044;8.716;2024-03-22T08:31:51;16.73;;;11.00;;
22543;SDS011;11438;52.044;8.716;2024-03-22T08:34:18;17.50;;;10.98;;
22543;SDS011;11438;52.044;8.716;2024-03-22T08:36:43;17.60;;;11.40;;
22543;SDS011;11438;52.044;8.716;2024-03-22T08:39:09;21.58;;;11.50;;
22543;SDS011;11438;52.044;8.716;2024-03-22T08:41:35;19.10;;;11.68;;
22543;SDS011;11438;52.044;8.716;2024-03-22T08:44:04;19.25;;;11.38;;
22543;SDS011;11438;52.044;8.716;2024-03-22T08:46:29;16.33;;;10.57;;
22543;SDS011;11438;52.044;8.716;2024-03-22T08:48:57;17.13;;;11.15;;
22543;SDS011;11438;52.044;8.716;2024-03-22T08:51:22;17.17;;;11.38;;
22543;SDS011;11438;52.044;8.716;2024-03-22T08:53:48;15.27;;;10.40;;
22543;SDS011;11438;52.044;8.716;2024-03-22T08:56:13;17.38;;;11.20;;
22543;SDS011;11438;52.044;8.716;2024-03-22T08:58:39;20.73;;;11.75;;
22543;SDS011;11438;52.044;8.716;2024-03-22T09:01:05;17.73;;;10.57;;
22543;SDS011;11438;52.044;8.716;2024-03-22T09:03:30;18.23;;;10.65;;
22543;SDS011;11438;52.044;8.716;2024-03-22T09:05:56;18.70;;;11.27;;
22543;SDS011;11438;52.044;8.716;2024-03-22T09:08:21;16.73;;;11.73;;
22543;SDS011;11438;52.044;8.716;2024-03-22T09:10:47;17.95;;;11.50;;
22543;SDS011;11438;52.044;8.716;2024-03-22T09:13:13;18.65;;;11.55;;
22543;SDS011;11438;52.044;8.716;2024-03-22T09:15:39;19.23;;;11.85;;
22543;SDS011;11438;52.044;8.716;2024-03-22T09:18:04;18.55;;;10.82;;
22543;SDS011;11438;52.044;8.716;2024-03-22T09:20:30;19.35;;;10.23;;
22543;SDS011;11438;52.044;8.716;2024-03-22T09:22:55;18.88;;;10.70;;
22543;SDS011;11438;52.044;8.716;2024-03-22T09:25:22;17.13;;;10.90;;
22543;SDS011;11438;52.044;8.716;2024-03-22T09:27:48;17.70;;;10.68;;
22543;SDS011;11438;52.044;8.716;2024-03-22T09:30:14;14.65;;;10.07;;
22543;SDS011;11438;52.044;8.716;2024-03-22T09:32:39;17.98;;;9.73;;
22543;SDS011;11438;52.044;8.716;2024-03-22T09:35:05;15.50;;;10.05;;
22543;SDS011;11438;52.044;8.716;2024-03-22T09:37:31;17.30;;;9.27;;
22543;SDS011;11438;52.044;8.716;2024-03-22T09:39:57;16.40;;;9.68;;
22543;SDS011;11438;52.044;8.716;2024-03-22T09:42:23;14.07;;;9.38;;
22543;SDS011;11438;52.044;8.716;2024-03-22T09:44:50;14.98;;;9.75;;
22543;SDS011;11438;52.044;8.716;2024-03-22T09:47:16;15.77;;;9.57;;
22543;SDS011;11438;52.044;8.716;2024-03-22T09:49:43;13.45;;;8.63;;
22543;SDS011;11438;52.044;8.716;2024-03-22T09:52:13;15.93;;;9.82;;
22543;SDS011;11438;52.044;8.716;2024-03-22T09:54:43;15.15;;;10.40;;
22543;SDS011;11438;52.044;8.716;2024-03-22T09:57:15;15.75;;;9.82;;
22543;SDS011;11438;52.044;8.716;2024-03-22T09:59:44;17.48;;;10.93;;
22543;SDS011;11438;52.044;8.716;2024-03-22T10:02:11;16.08;;;9.55;;
22543;SDS011;11438;52.044;8.716;2024-03-22T10:04:43;14.63;;;9.48;;
22543;SDS011;11438;52.044;8.716;2024-03-22T10:07:08;16.13;;;9.25;;
22543;SDS011;11438;52.044;8.716;2024-03-22T10:09:38;18.52;;;11.00;;
22543;SDS011;11438;52.044;8.716;2024-03-22T10:12:04;14.82;;;9.55;;
22543;SDS011;11438;52.044;8.716;2024-03-22T10:14:29;17.23;;;10.27;;
22543;SDS011;11438;52.044;8.716;2024-03-22T10:16:56;20.63;;;12.63;;
22543;SDS011;11438;52.044;8.716;2024-03-22T10:19:22;17.60;;;11.20;;
22543;SDS011;11438;52.044;8.716;2024-03-22T10:22:00;22.77;;;10.90;;
22543;SDS011;11438;52.044;8.716;2024-03-22T10:24:29;18.60;;;11.10;;
22543;SDS011;11438;52.044;8.716;2024-03-22T10:26:55;19.27;;;11.63;;
22543;SDS011;11438;52.044;8.716;2024-03-22T10:29:21;19.95;;;11.50;;
22543;SDS011;11438;52.044;8.716;2024-03-22T10:31:47;19.42;;;10.77;;
22543;SDS011;11438;52.044;8.716;2024-03-22T10:34:24;16.55;;;9.32;;
22543;SDS011;11438;52.044;8.716;2024-03-22T10:36:50;16.42;;;9.75;;
22543;SDS011;11438;52.044;8.716;2024-03-22T10:39:18;13.90;;;9.07;;
22543;SDS011;11438;52.044;8.716;2024-03-22T10:41:47;17.50;;;9.98;;
22543;SDS011;11438;52.044;8.716;2024-03-22T10:44:13;19.45;;;10.80;;
22543;SDS011;11438;52.044;8.716;2024-03-22T10:46:43;21.58;;;11.70;;
22543;SDS011;11438;52.044;8.716;2024-03-22T10:49:15;17.73;;;9.55;;
22543;SDS011;11438;52.044;8.716;2024-03-22T10:51:42;15.25;;;9.30;;
22543;SDS011;11438;52.044;8.716;2024-03-22T10:54:11;19.42;;;10.18;;
22543;SDS011;11438;52.044;8.716;2024-03-22T10:56:41;14.43;;;10.02;;
22543;SDS011;11438;52.044;8.716;2024-03-22T10:59:08;15.55;;;10.95;;
22543;SDS011;11438;52.044;8.716;2024-03-22T11:01:34;16.73;;;9.77;;
22543;SDS011;11438;52.044;8.716;2024-03-22T11:04:05;18.13;;;10.43;;
22543;SDS011;11438;52.044;8.716;2024-03-22T11:06:37;18.63;;;10.25;;
22543;SDS011;11438;52.044;8.716;2024-03-22T11:09:02;16.70;;;11.02;;
22543;SDS011;11438;52.044;8.716;2024-03-22T11:11:29;15.60;;;10.05;;
22543;SDS011;11438;52.044;8.716;2024-03-22T11:13:56;16.23;;;10.65;;
22543;SDS011;11438;52.044;8.716;2024-03-22T11:16:22;18.58;;;11.30;;
22543;SDS011;11438;52.044;8.716;2024-03-22T11:18:47;22.42;;;12.02;;
22543;SDS011;11438;52.044;8.716;2024-03-22T11:21:16;18.38;;;11.45;;
22543;SDS011;11438;52.044;8.716;2024-03-22T11:23:44;15.70;;;10.65;;
22543;SDS011;11438;52.044;8.716;2024-03-22T11:26:10;17.80;;;12.00;;
22543;SDS011;11438;52.044;8.716;2024-03-22T11:28:37;17.92;;;10.20;;
22543;SDS011;11438;52.044;8.716;2024-03-22T11:31:03;16.10;;;10.13;;
22543;SDS011;11438;52.044;8.716;2024-03-22T11:33:29;16.02;;;10.60;;
22543;SDS011;11438;52.044;8.716;2024-03-22T11:35:57;16.52;;;10.63;;
22543;SDS011;11438;52.044;8.716;2024-03-22T11:38:24;17.98;;;10.63;;
22543;SDS011;11438;52.044;8.716;2024-03-22T11:40:52;18.05;;;10.85;;
22543;SDS011;11438;52.044;8.716;2024-03-22T11:43:19;19.88;;;10.80;;
22543;SDS011;11438;52.044;8.716;2024-03-22T11:45:45;15.32;;;9.85;;
22543;SDS011;11438;52.044;8.716;2024-03-22T11:48:10;16.48;;;10.02;;
22543;SDS011;11438;52.044;8.716;2024-03-22T11:50:39;16.85;;;10.50;;
22543;SDS011;11438;52.044;8.716;2024-03-22T11:53:05;15.98;;;11.02;;
22543;SDS011;11438;52.044;8.716;2024-03-22T11:55:31;18.27;;;10.15;;
22543;SDS011;11438;52.044;8.716;2024-03-22T11:57:57;16.35;;;11.30;;
22543;SDS011;11438;52.044;8.716;2024-03-22T12:00:23;17.30;;;10.80;;
22543;SDS011;11438;52.044;8.716;2024-03-22T12:02:50;17.83;;;11.48;;
22543;SDS011;11438;52.044;8.716;2024-03-22T12:05:17;17.52;;;11.40;;
22543;SDS011;11438;52.044;8.716;2024-03-22T12:07:43;17.77;;;11.30;;
22543;SDS011;11438;52.044;8.716;2024-03-22T12:10:10;17.75;;;11.10;;
22543;SDS011;11438;52.044;8.716;2024-03-22T12:12:35;16.67;;;11.70;;
22543;SDS011;11438;52.044;8.716;2024-03-22T12:15:02;17.92;;;11.85;;
22543;SDS011;11438;52.044;8.716;2024-03-22T12:17:28;15.98;;;11.18;;
22543;SDS011;11438;52.044;8.716;2024-03-22T12:19:54;16.33;;;11.63;;
22543;SDS011;11438;52.044;8.716;2024-03-22T12:22:20;16.77;;;11.70;;
22543;SDS011;11438;52.044;8.716;2024-03-22T12:24:47;20.20;;;11.55;;
22543;SDS011;11438;52.044;8.716;2024-03-22T12:27:12;21.45;;;12.40;;
22543;SDS011;11438;52.044;8.716;2024-03-22T12:29:38;19.27;;;12.88;;
22543;SDS011;11438;52.044;8.716;2024-03-22T12:32:03;17.40;;;12.27;;
22543;SDS011;11438;52.044;8.716;2024-03-22T12:34:30;17.65;;;12.63;;
22543;SDS011;11438;52.044;8.716;2024-03-22T12:36:57;18.42;;;12.63;;
22543;SDS011;11438;52.044;8.716;2024-03-22T12:39:23;20.35;;;13.65;;
22543;SDS011;11438;52.044;8.716;2024-03-22T12:41:49;21.63;;;13.32;;
22543;SDS011;11438;52.044;8.716;2024-03-22T12:44:14;22.40;;;13.75;;
22543;SDS011;11438;52.044;8.716;2024-03-22T12:46:40;19.02;;;12.55;;
22543;SDS011;11438;52.044;8.716;2024-03-22T12:49:10;21.63;;;13.70;;
22543;SDS011;11438;52.044;8.716;2024-03-22T12:51:36;18.48;;;12.32;;
22543;SDS011;11438;52.044;8.716;2024-03-22T12:54:01;17.23;;;12.02;;
22543;SDS011;11438;52.044;8.716;2024-03-22T12:56:27;19.33;;;13.23;;
22543;SDS011;11438;52.044;8.716;2024-03-22T12:58:53;19.40;;;13.50;;
22543;SDS011;11438;52.044;8.716;2024-03-22T13:01:19;20.33;;;12.57;;
22543;SDS011;11438;52.044;8.716;2024-03-22T13:03:44;19.48;;;13.18;;
22543;SDS011;11438;52.044;8.716;2024-03-22T13:06:10;21.20;;;12.77;;
22543;SDS011;11438;52.044;8.716;2024-03-22T13:08:35;19.63;;;12.82;;
22543;SDS011;11438;52.044;8.716;2024-03-22T13:11:01;20.40;;;13.15;;
22543;SDS011;11438;52.044;8.716;2024-03-22T13:13:27;21.52;;;14.23;;
22543;SDS011;11438;52.044;8.716;2024-03-22T13:15:52;20.83;;;14.35;;
22543;SDS011;11438;52.044;8.716;2024-03-22T13:18:21;20.85;;;14.05;;
22543;SDS011;11438;52.044;8.716;2024-03-22T13:20:46;19.77;;;13.43;;
22543;SDS011;11438;52.044;8.716;2024-03-22T13:23:12;21.77;;;14.52;;
22543;SDS011;11438;52.044;8.716;2024-03-22T13:25:38;18.85;;;13.10;;
22543;SDS011;11438;52.044;8.716;2024-03-22T13:28:04;20.10;;;13.50;;
22543;SDS011;11438;52.044;8.716;2024-03-22T13:30:32;20.00;;;14.07;;
22543;SDS011;11438;52.044;8.716;2024-03-22T13:33:00;26.75;;;14.57;;
22543;SDS011;11438;52.044;8.716;2024-03-22T13:35:25;19.75;;;12.80;;
22543;SDS011;11438;52.044;8.716;2024-03-22T13:37:51;20.67;;;13.63;;
22543;SDS011;11438;52.044;8.716;2024-03-22T13:40:17;21.23;;;14.20;;
22543;SDS011;11438;52.044;8.716;2024-03-22T13:42:42;21.17;;;14.32;;
22543;SDS011;11438;52.044;8.716;2024-03-22T13:45:08;20.77;;;14.52;;
22543;SDS011;11438;52.044;8.716;2024-03-22T13:47:34;23.45;;;14.65;;
22543;SDS011;11438;52.044;8.716;2024-03-22T13:50:02;20.35;;;14.15;;
22543;SDS011;11438;52.044;8.716;2024-03-22T13:52:29;22.35;;;14.57;;
22543;SDS011;11438;52.044;8.716;2024-03-22T13:54:55;21.42;;;14.40;;
22543;SDS011;11438;52.044;8.716;2024-03-22T13:57:20;22.23;;;15.23;;
22543;SDS011;11438;52.044;8.716;2024-03-22T13:59:46;20.85;;;14.55;;
22543;SDS011;11438;52.044;8.716;2024-03-22T14:02:12;22.42;;;15.63;;
22543;SDS011;11438;52.044;8.716;2024-03-22T14:04:38;22.45;;;15.82;;
22543;SDS011;11438;52.044;8.716;2024-03-22T14:07:03;30.10;;;16.17;;
22543;SDS011;11438;52.044;8.716;2024-03-22T14:09:29;22.70;;;15.52;;
22543;SDS011;11438;52.044;8.716;2024-03-22T14:11:56;22.98;;;14.60;;
22543;SDS011;11438;52.044;8.716;2024-03-22T14:14:21;20.80;;;14.55;;
22543;SDS011;11438;52.044;8.716;2024-03-22T14:16:48;20.92;;;13.95;;